Terminal Aerodrome Forecast
Issued by NWS

Home | Current Version | Previous Version | Text Only | Print | Product List | Glossary On
Versions: 1 2 3 4 5 6 7 8 9 10 11 12
000
FTUS43 KBIS 291728
TAFMOT
TAF
KMOT 291728Z 2918/3018 33010KT P6SM BKN100
     FM292200 01008KT P6SM SCT060
     FM300300 06005KT P6SM SCT100
     FM300800 10005KT P6SM BKN100
     FM301300 14008KT P6SM VCSH BKN050 OVC080=

USA.gov is the U.S. government's official web portal to all federal, state and local government web resources and services.